Terminal Aerodrome Forecast
Issued by NWS

Home | Current Version | Previous Version | Text Only | Print | Product List | Glossary On
Versions: 1 2 3 4 5 6 7 8 9 10 11 12 13 14 15 16 17 18
000
FTUS44 KLZK 040700 AAA
TAFADF
TAF AMD
KADF 040725Z 0407/0506 VRB05KT 6SM -RA BR VCTS SCT035CB BKN050
      OVC100
      TEMPO 0407/0410 3SM TSRA BKN035CB OVC050
     FM041000 20005KT 6SM BR VCSH BKN035 OVC050
      TEMPO 0410/0413 3SM -RA BR BKN015
     FM041600 22007KT P6SM VCSH BKN035 OVC100
     FM041900 23006KT P6SM VCTS SCT050CB BKN100 OVC250=

USA.gov is the U.S. government's official web portal to all federal, state and local government web resources and services.